createdAt,value
2017-08-09T00:01:52.475Z,14.90
2017-08-09T00:04:20.072Z,15.00
2017-08-09T00:06:47.638Z,15.00
2017-08-09T00:09:15.181Z,15.00
2017-08-09T00:11:42.758Z,15.10
2017-08-09T00:14:10.321Z,15.20
2017-08-09T00:16:37.871Z,15.20
2017-08-09T00:19:05.442Z,15.30
2017-08-09T00:21:32.982Z,15.30
2017-08-09T00:24:00.535Z,15.30
2017-08-09T00:26:28.119Z,15.40
2017-08-09T00:28:55.673Z,15.40
2017-08-09T00:31:23.242Z,15.40
2017-08-09T00:33:50.826Z,15.40
2017-08-09T00:36:18.375Z,15.40
2017-08-09T00:38:45.940Z,15.40
2017-08-09T00:41:13.530Z,15.40
2017-08-09T00:43:41.066Z,15.40
2017-08-09T00:46:08.623Z,15.40
2017-08-09T00:48:36.207Z,15.30
2017-08-09T00:51:03.755Z,15.20
2017-08-09T00:53:31.318Z,15.20
2017-08-09T00:55:58.905Z,15.20
2017-08-09T00:58:26.449Z,15.10
2017-08-09T01:00:54.009Z,15.10
2017-08-09T01:03:21.605Z,15.00
2017-08-09T01:05:49.150Z,15.00
2017-08-09T01:08:16.690Z,15.00
2017-08-09T01:10:44.265Z,15.00
2017-08-09T01:13:11.828Z,14.90
2017-08-09T01:15:39.371Z,14.90
2017-08-09T01:18:06.964Z,14.90
2017-08-09T01:20:34.529Z,14.90
2017-08-09T01:23:02.075Z,14.90
2017-08-09T01:25:29.673Z,14.90
2017-08-09T01:27:57.227Z,14.90
2017-08-09T01:30:24.792Z,15.00
2017-08-09T01:32:52.495Z,15.00
2017-08-09T01:35:20.816Z,15.10
2017-08-09T01:37:51.029Z,15.10
2017-08-09T01:40:19.125Z,15.10
2017-08-09T01:42:46.661Z,15.20
2017-08-09T01:45:14.225Z,15.20
2017-08-09T01:47:41.826Z,15.20
2017-08-09T01:50:09.366Z,15.10
2017-08-09T01:52:36.905Z,15.20
2017-08-09T01:55:04.473Z,15.20
2017-08-09T01:57:32.048Z,15.20
2017-08-09T01:59:59.636Z,15.20
2017-08-09T02:02:27.260Z,15.20
2017-08-09T02:04:54.818Z,15.20
2017-08-09T02:07:22.376Z,15.20
2017-08-09T02:09:49.960Z,15.30
2017-08-09T02:12:17.529Z,15.40
2017-08-09T02:14:45.093Z,15.50
2017-08-09T02:17:12.683Z,15.50
2017-08-09T02:19:40.231Z,15.50
2017-08-09T02:22:07.798Z,15.50
2017-08-09T02:24:35.401Z,15.60
2017-08-09T02:27:02.942Z,15.50
2017-08-09T02:29:30.515Z,15.50
2017-08-09T02:31:58.098Z,15.50
2017-08-09T02:34:25.648Z,15.50
2017-08-09T02:36:53.233Z,15.50
2017-08-09T02:39:20.815Z,15.40
2017-08-09T02:41:48.376Z,15.40
2017-08-09T02:44:15.919Z,15.30
2017-08-09T02:46:43.494Z,15.20
2017-08-09T02:49:11.057Z,15.20
2017-08-09T02:51:38.627Z,15.20
2017-08-09T02:54:06.217Z,15.20
2017-08-09T02:56:33.780Z,15.20
2017-08-09T02:59:01.344Z,15.30
2017-08-09T03:01:28.944Z,15.20
2017-08-09T03:03:56.509Z,15.20
2017-08-09T03:06:24.066Z,15.30
2017-08-09T03:08:51.649Z,15.30
2017-08-09T03:11:19.211Z,15.30
2017-08-09T03:13:46.772Z,15.30
2017-08-09T03:16:14.359Z,15.30
2017-08-09T03:18:41.903Z,15.30
2017-08-09T03:21:09.464Z,15.20
2017-08-09T03:23:37.033Z,15.20
2017-08-09T03:26:04.583Z,15.20
2017-08-09T03:28:32.130Z,15.20
2017-08-09T03:30:59.724Z,15.20
2017-08-09T03:33:27.283Z,15.10
2017-08-09T03:35:54.831Z,15.20
2017-08-09T03:38:22.417Z,15.20
2017-08-09T03:40:49.967Z,15.20
2017-08-09T03:43:17.507Z,15.20
2017-08-09T03:45:45.081Z,15.30
2017-08-09T03:48:12.629Z,15.30
2017-08-09T03:50:40.191Z,15.30
2017-08-09T03:53:07.761Z,15.30
2017-08-09T03:55:35.303Z,15.30
2017-08-09T03:58:02.844Z,15.30
2017-08-09T04:00:31.182Z,15.40
2017-08-09T04:02:58.734Z,15.40
2017-08-09T04:05:26.287Z,15.50
2017-08-09T04:07:53.884Z,15.50
2017-08-09T04:10:21.435Z,15.50
2017-08-09T04:12:48.992Z,15.60
2017-08-09T04:15:16.585Z,15.60
2017-08-09T04:17:44.144Z,15.60
2017-08-09T04:20:11.686Z,15.70
2017-08-09T04:22:39.263Z,15.70
2017-08-09T04:25:07.570Z,15.70
2017-08-09T04:27:35.124Z,15.70
2017-08-09T04:30:03.463Z,15.70
2017-08-09T04:32:31.023Z,15.70
2017-08-09T04:34:58.561Z,15.70
2017-08-09T04:37:26.156Z,15.80
2017-08-09T04:39:53.717Z,15.80
2017-08-09T04:42:21.265Z,15.80
2017-08-09T04:44:48.858Z,15.80
2017-08-09T04:47:17.194Z,15.80
2017-08-09T04:49:44.736Z,15.80
2017-08-09T04:52:12.305Z,15.80
2017-08-09T04:54:39.873Z,15.80
2017-08-09T04:57:07.424Z,15.90
2017-08-09T04:59:35.981Z,15.80
2017-08-09T05:02:03.540Z,15.80
2017-08-09T05:04:31.675Z,15.80
2017-08-09T05:06:59.250Z,15.80
2017-08-09T05:09:26.820Z,15.90
2017-08-09T05:11:54.369Z,15.90
2017-08-09T05:14:21.942Z,15.80
2017-08-09T05:16:49.490Z,15.80
2017-08-09T05:19:17.038Z,15.80
2017-08-09T05:21:44.657Z,15.80
2017-08-09T05:24:12.210Z,15.80
2017-08-09T05:26:39.759Z,15.80
2017-08-09T05:29:07.334Z,15.90
2017-08-09T05:31:34.893Z,15.90
2017-08-09T05:34:02.447Z,15.90
2017-08-09T05:36:30.023Z,16.00
2017-08-09T05:38:57.596Z,16.00
2017-08-09T05:41:25.147Z,15.90
2017-08-09T05:43:53.504Z,16.00
2017-08-09T05:46:21.059Z,16.00
2017-08-09T05:48:48.619Z,16.00
2017-08-09T05:51:16.205Z,16.00
2017-08-09T05:53:43.773Z,16.00
2017-08-09T05:56:12.099Z,16.00
2017-08-09T05:58:39.676Z,16.00
2017-08-09T06:01:07.241Z,16.00
2017-08-09T06:03:34.808Z,16.00
2017-08-09T06:06:02.400Z,16.10
2017-08-09T06:08:29.958Z,16.10
2017-08-09T06:10:57.507Z,16.10
2017-08-09T06:13:25.101Z,16.10
2017-08-09T06:15:52.665Z,16.20
2017-08-09T06:18:27.726Z,16.30
2017-08-09T06:20:55.283Z,16.30
2017-08-09T06:23:22.826Z,16.30
2017-08-09T06:25:50.402Z,16.30
2017-08-09T06:28:17.997Z,16.40
2017-08-09T06:30:45.562Z,16.30
2017-08-09T06:33:13.130Z,16.30
2017-08-09T06:35:40.692Z,16.40
2017-08-09T06:38:08.231Z,16.40
2017-08-09T06:40:35.829Z,16.40
2017-08-09T06:43:03.424Z,16.50
2017-08-09T06:45:30.965Z,16.50
2017-08-09T06:47:59.313Z,16.50
2017-08-09T06:50:26.866Z,16.50
2017-08-09T06:52:54.418Z,16.50
2017-08-09T06:55:22.010Z,16.60
2017-08-09T06:57:49.569Z,16.50
2017-08-09T07:00:17.128Z,16.50
2017-08-09T07:02:44.716Z,16.50
2017-08-09T07:05:13.047Z,16.60
2017-08-09T07:07:40.613Z,16.60
2017-08-09T07:10:08.516Z,16.60
2017-08-09T07:12:36.179Z,16.70
2017-08-09T07:15:03.842Z,16.70
2017-08-09T07:17:31.449Z,16.80
2017-08-09T07:19:59.076Z,17.00
2017-08-09T07:22:27.004Z,17.00
2017-08-09T07:24:54.592Z,17.20
2017-08-09T07:27:22.146Z,17.30
2017-08-09T07:29:49.703Z,17.40
2017-08-09T07:32:17.287Z,17.50
2017-08-09T07:34:44.838Z,17.70
2017-08-09T07:37:12.404Z,17.80
2017-08-09T07:39:39.997Z,18.00
2017-08-09T07:42:08.321Z,18.00
2017-08-09T07:44:35.879Z,18.00
2017-08-09T07:47:03.457Z,17.90
2017-08-09T07:49:30.991Z,17.80
2017-08-09T07:51:58.552Z,17.60
2017-08-09T07:54:26.140Z,17.50
2017-08-09T07:56:53.698Z,17.50
2017-08-09T07:59:21.253Z,17.40
2017-08-09T08:01:48.864Z,17.40
2017-08-09T08:04:17.196Z,17.60
2017-08-09T08:06:44.750Z,17.60
2017-08-09T08:09:12.520Z,17.80
2017-08-09T08:11:40.085Z,18.10
2017-08-09T08:14:07.630Z,18.30
2017-08-09T08:16:35.224Z,18.40
2017-08-09T08:19:02.767Z,18.70
2017-08-09T08:21:30.311Z,19.00
2017-08-09T08:23:57.887Z,19.10
2017-08-09T08:26:25.430Z,19.10
2017-08-09T08:28:52.981Z,19.00
2017-08-09T08:31:20.578Z,19.10
2017-08-09T08:33:48.138Z,19.10
2017-08-09T08:36:15.693Z,18.80
2017-08-09T08:38:43.284Z,18.80
2017-08-09T08:41:10.818Z,18.80
2017-08-09T08:43:38.365Z,18.80
2017-08-09T08:46:05.948Z,19.10
2017-08-09T08:48:33.513Z,19.30
2017-08-09T08:51:01.069Z,19.30
2017-08-09T08:53:28.662Z,19.50
2017-08-09T08:55:56.207Z,19.70
2017-08-09T08:58:23.766Z,19.60
2017-08-09T09:00:51.364Z,19.60
2017-08-09T09:03:18.925Z,19.70
2017-08-09T09:05:46.481Z,19.70
2017-08-09T09:08:14.083Z,19.90
2017-08-09T09:10:41.641Z,19.90
2017-08-09T09:13:09.199Z,20.00
2017-08-09T09:15:36.780Z,20.00
2017-08-09T09:18:04.327Z,20.10
2017-08-09T09:20:31.884Z,20.10
2017-08-09T09:22:59.470Z,20.40
2017-08-09T09:25:27.033Z,20.70
2017-08-09T09:27:54.570Z,20.80
2017-08-09T09:30:22.152Z,20.90
2017-08-09T09:32:49.712Z,20.90
2017-08-09T09:35:17.250Z,20.70
2017-08-09T09:37:44.818Z,20.70
2017-08-09T09:40:12.368Z,20.90
2017-08-09T09:42:40.671Z,21.10
2017-08-09T09:45:08.261Z,21.10
2017-08-09T09:47:35.810Z,21.10
2017-08-09T09:50:03.365Z,21.00
2017-08-09T09:52:30.945Z,20.90
2017-08-09T09:54:58.482Z,21.10
2017-08-09T09:57:26.026Z,21.30
2017-08-09T09:59:54.354Z,21.40
2017-08-09T10:02:21.908Z,21.40
2017-08-09T10:04:50.317Z,21.40
2017-08-09T10:07:17.893Z,21.10
2017-08-09T10:09:46.216Z,20.90
2017-08-09T10:12:13.749Z,20.90
2017-08-09T10:14:42.097Z,20.90
2017-08-09T10:17:09.632Z,20.90
2017-08-09T10:19:37.177Z,21.00
2017-08-09T10:22:04.744Z,21.00
2017-08-09T10:24:32.292Z,20.90
2017-08-09T10:26:59.844Z,20.90
2017-08-09T10:29:27.429Z,21.10
2017-08-09T10:31:54.970Z,21.50
2017-08-09T10:34:22.531Z,21.80
2017-08-09T10:36:50.094Z,21.70
2017-08-09T10:39:17.653Z,21.50
2017-08-09T10:41:45.828Z,21.50
2017-08-09T10:44:14.429Z,21.50
2017-08-09T10:46:41.968Z,21.50
2017-08-09T10:49:10.294Z,21.30
2017-08-09T10:51:37.862Z,21.30
2017-08-09T10:54:05.398Z,21.30
2017-08-09T10:56:32.929Z,21.50
2017-08-09T10:59:01.309Z,21.80
2017-08-09T11:01:29.705Z,22.00
2017-08-09T11:03:57.564Z,22.00
2017-08-09T11:06:27.460Z,22.10
2017-08-09T11:08:57.119Z,22.20
2017-08-09T11:11:25.016Z,22.20
2017-08-09T11:13:52.639Z,22.30
2017-08-09T11:16:20.192Z,22.40
2017-08-09T11:22:19.028Z,22.20
2017-08-09T11:24:46.779Z,22.10
2017-08-09T11:27:15.348Z,21.90
2017-08-09T11:29:43.133Z,21.90
2017-08-09T11:32:14.870Z,21.90
2017-08-09T11:34:42.429Z,21.90
2017-08-09T11:37:10.010Z,22.10
2017-08-09T11:39:38.344Z,22.50
2017-08-09T11:42:06.348Z,22.50
2017-08-09T11:44:33.915Z,22.60
2017-08-09T11:47:01.466Z,22.60
2017-08-09T11:49:29.456Z,22.90
2017-08-09T11:51:57.786Z,22.90
2017-08-09T11:54:25.338Z,22.80
2017-08-09T11:56:53.042Z,22.90
2017-08-09T11:59:20.681Z,22.90
2017-08-09T12:01:48.235Z,23.10
2017-08-09T12:04:15.808Z,23.20
2017-08-09T12:06:43.383Z,23.20
2017-08-09T12:09:10.942Z,22.90
2017-08-09T12:11:38.527Z,22.70
2017-08-09T12:14:06.088Z,22.50
2017-08-09T12:16:33.654Z,22.40
2017-08-09T12:19:02.020Z,22.20
2017-08-09T12:21:29.723Z,22.20
2017-08-09T12:23:57.293Z,22.40
2017-08-09T12:26:24.893Z,22.50
2017-08-09T12:28:52.463Z,22.50
2017-08-09T12:31:20.029Z,22.60
2017-08-09T12:33:47.625Z,22.70
2017-08-09T12:36:15.943Z,23.00
2017-08-09T12:38:43.674Z,22.90
2017-08-09T12:41:11.268Z,23.10
2017-08-09T12:43:38.802Z,23.00
2017-08-09T12:46:06.339Z,23.00
2017-08-09T12:48:33.920Z,22.90
2017-08-09T12:51:01.464Z,23.00
2017-08-09T12:53:28.999Z,23.10
2017-08-09T12:55:56.586Z,23.20
2017-08-09T12:58:24.162Z,23.30
2017-08-09T13:00:52.473Z,23.40
2017-08-09T13:03:20.055Z,23.30
2017-08-09T13:05:47.621Z,23.30
2017-08-09T13:08:15.178Z,23.20
2017-08-09T13:10:42.742Z,23.20
2017-08-09T13:13:10.301Z,23.10
2017-08-09T13:15:37.861Z,23.20
2017-08-09T13:18:05.455Z,23.40
2017-08-09T13:20:33.003Z,23.40
2017-08-09T13:23:00.552Z,23.50
2017-08-09T13:25:28.126Z,23.50
2017-08-09T13:27:55.673Z,23.50
2017-08-09T13:30:23.219Z,23.50
2017-08-09T13:32:50.779Z,23.30
2017-08-09T13:35:18.317Z,23.40
2017-08-09T13:37:46.634Z,23.30
2017-08-09T13:40:14.212Z,23.30
2017-08-09T13:42:41.748Z,23.30
2017-08-09T13:45:09.308Z,23.40
2017-08-09T13:47:36.907Z,23.40
2017-08-09T13:50:04.459Z,23.30
2017-08-09T13:52:32.042Z,23.20
2017-08-09T13:55:00.398Z,23.30
2017-08-09T13:57:27.954Z,23.20
2017-08-09T13:59:55.498Z,23.20
2017-08-09T14:02:23.145Z,23.30
2017-08-09T14:04:50.721Z,23.30
2017-08-09T14:07:18.272Z,23.40
2017-08-09T14:09:45.860Z,23.20
2017-08-09T14:12:13.419Z,22.90
2017-08-09T14:14:40.956Z,22.80
2017-08-09T14:17:08.647Z,22.90
2017-08-09T14:19:36.179Z,22.90
2017-08-09T14:22:03.719Z,22.90
2017-08-09T14:24:32.067Z,22.90
2017-08-09T14:26:59.614Z,22.90
2017-08-09T14:29:27.157Z,22.90
2017-08-09T14:31:54.779Z,22.80
2017-08-09T14:34:22.325Z,22.80
2017-08-09T14:36:49.873Z,22.80
2017-08-09T14:39:17.478Z,22.80
2017-08-09T14:41:45.799Z,22.80
2017-08-09T14:44:13.355Z,22.80
2017-08-09T14:46:40.941Z,22.90
2017-08-09T14:49:08.497Z,22.90
2017-08-09T14:51:36.075Z,22.60
2017-08-09T14:54:03.653Z,22.70
2017-08-09T14:56:31.200Z,22.60
2017-08-09T14:58:58.730Z,22.40
2017-08-09T15:01:26.348Z,22.30
2017-08-09T15:03:54.671Z,22.40
2017-08-09T15:06:22.211Z,22.30
2017-08-09T15:08:49.900Z,22.40
2017-08-09T15:11:17.435Z,22.60
2017-08-09T15:13:44.972Z,22.70
2017-08-09T15:16:13.301Z,22.90
2017-08-09T15:18:40.972Z,23.00
2017-08-09T15:21:08.508Z,23.00
2017-08-09T15:23:36.102Z,23.00
2017-08-09T15:26:03.665Z,22.90
2017-08-09T15:28:31.219Z,22.80
2017-08-09T15:30:58.791Z,22.60
2017-08-09T15:33:26.345Z,22.70
2017-08-09T15:35:53.882Z,22.70
2017-08-09T15:38:21.459Z,22.60
2017-08-09T15:40:49.008Z,22.80
2017-08-09T15:43:16.571Z,22.90
2017-08-09T15:45:46.748Z,23.00
2017-08-09T15:48:14.285Z,23.20
2017-08-09T15:50:41.833Z,23.20
2017-08-09T15:53:09.412Z,23.30
2017-08-09T15:55:36.947Z,23.30
2017-08-09T15:58:04.506Z,23.50
2017-08-09T16:00:32.107Z,23.60
2017-08-09T16:02:59.639Z,23.60
2017-08-09T16:05:27.222Z,23.70
2017-08-09T16:07:54.805Z,23.60
2017-08-09T16:10:22.361Z,23.60
2017-08-09T16:12:49.942Z,23.50
2017-08-09T16:15:18.288Z,23.60
2017-08-09T16:17:45.823Z,23.60
2017-08-09T16:20:13.675Z,23.50
2017-08-09T16:22:41.243Z,23.50
2017-08-09T16:25:11.559Z,23.50
2017-08-09T16:27:39.106Z,23.20
2017-08-09T16:30:07.454Z,22.90
2017-08-09T16:32:35.012Z,22.90
2017-08-09T16:35:02.558Z,22.80
2017-08-09T16:37:30.149Z,22.80
2017-08-09T16:39:57.691Z,22.80
2017-08-09T16:42:25.478Z,22.60
2017-08-09T16:44:53.074Z,22.60
2017-08-09T16:47:21.081Z,22.60
2017-08-09T16:49:48.714Z,22.60
2017-08-09T16:52:16.286Z,22.50
2017-08-09T16:54:43.860Z,22.40
2017-08-09T16:57:11.405Z,22.30
2017-08-09T16:59:38.978Z,22.30
2017-08-09T17:02:06.534Z,22.20
2017-08-09T17:04:34.109Z,22.10
2017-08-09T17:07:01.698Z,22.20
2017-08-09T17:09:29.245Z,22.10
2017-08-09T17:11:56.783Z,22.10
2017-08-09T17:14:24.363Z,22.10
2017-08-09T17:16:51.904Z,22.00
2017-08-09T17:19:19.458Z,21.90
2017-08-09T17:21:47.052Z,21.70
2017-08-09T17:24:14.613Z,21.50
2017-08-09T17:26:42.167Z,21.50
2017-08-09T17:29:12.652Z,21.40
2017-08-09T17:31:42.391Z,21.40
2017-08-09T17:34:09.997Z,21.50
2017-08-09T17:36:37.536Z,21.50
2017-08-09T17:39:05.074Z,21.60
2017-08-09T17:41:32.687Z,21.60
2017-08-09T17:44:00.257Z,21.60
2017-08-09T17:46:27.809Z,21.60
2017-08-09T17:48:55.390Z,21.50
2017-08-09T17:51:22.923Z,21.50
2017-08-09T17:53:50.468Z,21.40
2017-08-09T17:56:18.065Z,21.40
2017-08-09T17:58:45.599Z,21.30
2017-08-09T18:01:13.140Z,21.20
2017-08-09T18:03:40.783Z,21.20
2017-08-09T18:06:09.102Z,21.10
2017-08-09T18:08:36.657Z,21.00
2017-08-09T18:11:04.246Z,21.00
2017-08-09T18:13:31.808Z,20.90
2017-08-09T18:15:59.404Z,20.90
2017-08-09T18:18:27.753Z,20.80
2017-08-09T18:20:55.295Z,20.80
2017-08-09T18:23:22.851Z,20.80
2017-08-09T18:25:50.465Z,20.80
2017-08-09T18:28:18.978Z,20.60
2017-08-09T18:30:46.532Z,20.70
2017-08-09T18:33:14.113Z,20.60
2017-08-09T18:35:41.727Z,20.50
2017-08-09T18:38:09.295Z,20.50
2017-08-09T18:40:36.910Z,20.40
2017-08-09T18:43:05.917Z,20.30
2017-08-09T18:45:33.566Z,20.30
2017-08-09T18:48:01.205Z,20.20
2017-08-09T18:50:34.169Z,20.20
2017-08-09T18:53:01.992Z,20.10
2017-08-09T18:55:29.544Z,20.10
2017-08-09T18:57:57.178Z,20.00
2017-08-09T19:00:28.292Z,19.80
2017-08-09T19:02:55.895Z,19.80
2017-08-09T19:05:23.431Z,19.70
2017-08-09T19:07:51.534Z,19.60
2017-08-09T19:10:19.074Z,19.50
2017-08-09T19:12:47.401Z,19.40
2017-08-09T19:15:15.843Z,19.30
2017-08-09T19:17:43.403Z,19.30
2017-08-09T19:20:11.733Z,19.10
2017-08-09T19:22:39.301Z,19.10
2017-08-09T19:25:06.899Z,19.10
2017-08-09T19:27:34.495Z,19.00
2017-08-09T19:30:03.412Z,19.00
2017-08-09T19:32:30.984Z,18.90
2017-08-09T19:34:58.530Z,18.80
2017-08-09T19:37:26.124Z,18.70
2017-08-09T19:39:53.710Z,18.60
2017-08-09T19:42:21.282Z,18.50
2017-08-09T19:44:49.627Z,18.50
2017-08-09T19:47:17.345Z,18.40
2017-08-09T19:49:44.880Z,18.50
2017-08-09T19:52:13.224Z,18.30
2017-08-09T19:54:40.774Z,18.30
2017-08-09T19:57:08.433Z,18.20
2017-08-09T19:59:36.684Z,18.20
2017-08-09T20:02:04.762Z,18.10
2017-08-09T20:04:32.359Z,18.10
2017-08-09T20:07:02.163Z,18.00
2017-08-09T20:09:29.782Z,18.00
2017-08-09T20:11:58.269Z,17.90
2017-08-09T20:14:25.874Z,17.90
2017-08-09T20:16:53.414Z,17.90
2017-08-09T20:19:21.118Z,17.80
2017-08-09T20:21:48.950Z,17.80
2017-08-09T20:24:16.516Z,17.70
2017-08-09T20:26:44.059Z,17.70
2017-08-09T20:29:11.653Z,17.60
2017-08-09T20:31:39.220Z,17.70
2017-08-09T20:34:06.767Z,17.60
2017-08-09T20:36:34.349Z,17.60
2017-08-09T20:39:01.898Z,17.60
2017-08-09T20:41:29.457Z,17.50
2017-08-09T20:43:57.021Z,17.50
2017-08-09T20:46:24.582Z,17.50
2017-08-09T20:48:52.111Z,17.40
2017-08-09T20:51:19.696Z,17.40
2017-08-09T20:53:47.235Z,17.40
2017-08-09T20:56:14.783Z,17.40
2017-08-09T20:58:43.136Z,17.40
2017-08-09T21:01:10.696Z,17.40
2017-08-09T21:03:38.229Z,17.40
2017-08-09T21:06:05.821Z,17.40
2017-08-09T21:08:33.358Z,17.40
2017-08-09T21:11:00.898Z,17.50
2017-08-09T21:13:28.490Z,17.50
2017-08-09T21:15:56.047Z,17.50
2017-08-09T21:18:23.585Z,17.40
2017-08-09T21:20:51.146Z,17.40
2017-08-09T21:23:18.694Z,17.30
2017-08-09T21:25:46.261Z,17.30
2017-08-09T21:28:13.864Z,17.20
2017-08-09T21:30:41.403Z,17.20
2017-08-09T21:33:08.934Z,17.20
2017-08-09T21:35:36.510Z,17.20
2017-08-09T21:38:04.068Z,17.20
2017-08-09T21:40:31.630Z,17.20
2017-08-09T21:42:59.198Z,17.20
2017-08-09T21:45:26.730Z,17.20
2017-08-09T21:47:55.052Z,17.10
2017-08-09T21:50:22.951Z,17.10
2017-08-09T21:52:50.556Z,17.00
2017-08-09T21:55:18.132Z,17.00
2017-08-09T21:57:45.711Z,16.90
2017-08-09T22:00:13.254Z,16.90
2017-08-09T22:02:40.808Z,16.80
2017-08-09T22:05:09.151Z,16.80
2017-08-09T22:07:36.705Z,16.70
2017-08-09T22:10:04.244Z,16.70
2017-08-09T22:12:31.818Z,16.70
2017-08-09T22:14:59.357Z,16.60
2017-08-09T22:17:26.906Z,16.50
2017-08-09T22:19:54.492Z,16.40
2017-08-09T22:22:22.041Z,16.40
2017-08-09T22:24:49.582Z,16.30
2017-08-09T22:27:17.158Z,16.30
2017-08-09T22:29:44.705Z,16.30
2017-08-09T22:32:12.270Z,16.30
2017-08-09T22:34:39.857Z,16.30
2017-08-09T22:37:07.405Z,16.20
2017-08-09T22:39:34.952Z,16.20
2017-08-09T22:42:02.540Z,16.20
2017-08-09T22:44:30.110Z,16.20
2017-08-09T22:46:57.671Z,16.20
2017-08-09T22:49:25.242Z,16.20
2017-08-09T22:51:52.800Z,16.20
2017-08-09T22:54:20.355Z,16.10
2017-08-09T22:56:47.945Z,16.20
2017-08-09T22:59:15.494Z,16.20
2017-08-09T23:01:43.146Z,16.20
2017-08-09T23:04:10.732Z,16.20
2017-08-09T23:06:38.289Z,16.20
2017-08-09T23:09:06.120Z,16.20
2017-08-09T23:11:33.770Z,16.10
2017-08-09T23:14:01.316Z,15.90
2017-08-09T23:16:28.860Z,15.60
2017-08-09T23:18:56.436Z,15.70
2017-08-09T23:21:23.983Z,15.70
2017-08-09T23:23:51.525Z,15.70
2017-08-09T23:26:19.116Z,15.70
2017-08-09T23:28:47.430Z,15.70
2017-08-09T23:31:14.970Z,15.70
2017-08-09T23:33:43.304Z,15.60
2017-08-09T23:36:10.875Z,15.60
2017-08-09T23:38:38.410Z,15.60
2017-08-09T23:41:05.994Z,15.60
2017-08-09T23:43:33.537Z,15.60
2017-08-09T23:46:01.094Z,15.60
2017-08-09T23:48:28.684Z,15.70
2017-08-09T23:50:56.222Z,15.70
2017-08-09T23:53:23.785Z,15.70
2017-08-09T23:55:51.557Z,15.70
2017-08-09T23:58:19.382Z,15.70
